Flight Track Log - Related Links

Times and Time Zones

All times are in EDT time to prevent confusion due to time zone crossing. See the JBU1853 flight status page for this flight to view local times or setup timezone preferences in your user account.

Time Position Orientation Groundspeed Altitude Reporting Facility
EDT Latitude Longitude Course Direction KTS MPH feet Rate Location/Type
Wed 09:50:39 PM 26.0753 -80.1275 99° East 159 183 1,000  Level Miami Center
Wed 09:51:52 PM 26.0786 -80.0628 87° East 186 214 2,800 1,781 Climbing Miami Center
Wed 09:53:00 PM 26.0219 -79.6317 104° East  Level FlightAware Approximate
Wed 09:53:14 PM 26.0764 -79.9703 92° East 240 276 5,600  Level Miami Center
Wed 09:54:00 PM 25.9871 -79.5076 119° Southeast  Level FlightAware Approximate
Wed 09:54:16 PM 26.0636 -79.8911 100° East 251 289 8,300  Level Miami Center
Wed 09:55:00 PM 25.9661 -79.3794 99° East  Level FlightAware Approximate
Wed 09:55:15 PM 26.0464 -79.8028 102° East 268 308 11,100  Level Miami Center
Wed 09:56:16 PM 26.0339 -79.7078 98° East 295 339 12,600 1,850 Climbing Miami Center
Wed 09:57:15 PM 26.0150 -79.6033 101° East 322 371 14,800 2,269 Climbing Miami Center
Wed 09:58:15 PM 25.9919 -79.4919 103° East 356 410 17,100 2,200 Climbing Miami Center
Wed 09:59:15 PM 25.9731 -79.3689 100° East 363 418 19,200 1,850 Climbing Miami Center
Wed 10:00:15 PM 25.9581 -79.2622 99° East 378 435 20,800 1,525 Climbing Miami Center
Wed 10:01:17 PM 25.9456 -79.1397 96° East 388 447 22,300 1,500 Climbing Miami Center
Wed 10:02:15 PM 25.9306 -79.0169 98° East 393 452 23,800 1,412 Climbing Miami Center
Wed 10:03:16 PM 25.9094 -78.8964 101° East 398 458 25,100 1,230 Climbing Miami Center
Wed 10:04:17 PM 25.8903 -78.7644 99° East 410 472 26,300 1,059 Climbing Miami Center
Wed 10:05:15 PM 25.8711 -78.6303 99° East 429 494 27,200 1,017 Climbing Miami Center
Wed 10:06:15 PM 25.8286 -78.5003 110° East 434 499 28,300 1,300 Climbing Miami Center
Wed 10:07:15 PM 25.7672 -78.3817 120° Southeast 441 507 29,800 1,328 Climbing Miami Center
Wed 10:08:17 PM 25.7036 -78.2633 121° Southeast 441 507 31,000 1,150 Climbing Miami Center
Wed 10:09:15 PM 25.6378 -78.1450 122° Southeast 446 513 32,100 1,160 Climbing Miami Center
Wed 10:10:16 PM 25.5761 -78.0269 120° Southeast 446 513 33,300 1,041 Climbing Miami Center
Wed 10:11:16 PM 25.5122 -77.9089 121° Southeast 447 514 34,200 793 Climbing Miami Center
Wed 10:12:17 PM 25.4525 -77.7886 119° Southeast 447 514 34,900 400 Climbing Miami Center
Wed 10:13:16 PM 25.3822 -77.6661 122° Southeast 453 521 35,000 101 Climbing Miami Center
Wed 10:14:16 PM 25.3181 -77.5417 120° Southeast 458 527 35,100 694 Climbing Miami Center
Wed 10:15:17 PM 25.2475 -77.4056 120° Southeast 458 527 36,400 857 Climbing Miami Center
Wed 10:16:15 PM 25.1811 -77.2836 121° Southeast 464 534 36,800 300 Climbing Miami Center
Wed 10:17:17 PM 25.1103 -77.1617 123° Southeast 469 540 37,000 100 Climbing Miami Center
Wed 10:18:15 PM 25.0414 -77.0400 122° Southeast 474 545 37,000  Level Miami Center
Wed 10:19:16 PM 24.9706 -76.9161 122° Southeast 474 545 37,000  Level Miami Center
Wed 10:20:17 PM 24.9014 -76.7947 122° Southeast 474 545 37,000  Level Miami Center
Wed 10:21:17 PM 24.8344 -76.6711 121° Southeast 474 545 37,000  Level Miami Center
Wed 10:22:16 PM 24.7717 -76.5636 123° Southeast 474 545 37,000  Level Miami Center
Wed 10:23:16 PM 24.7044 -76.4403 121° Southeast 474 545 37,000  Level Miami Center
Wed 10:24:17 PM 24.6331 -76.3217 123° Southeast 474 545 37,000  Level Miami Center
Wed 10:25:15 PM 24.5594 -76.1869 121° Southeast 474 545 37,000  Level Miami Center
Wed 10:26:16 PM 24.4897 -76.0711 123° Southeast 474 545 37,000  Level Miami Center
Wed 10:27:16 PM 24.4222 -75.9481 121° Southeast 474 545 37,000  Level Miami Center
Wed 10:28:17 PM 24.3525 -75.8278 122° Southeast 474 545 37,000  Level Miami Center
Wed 10:29:17 PM 24.2847 -75.7122 123° Southeast 468 539 37,000  Level Miami Center
Wed 10:30:15 PM 24.2169 -75.5919 122° Southeast 463 533 37,000  Level Miami Center
Wed 10:31:17 PM 24.1469 -75.4719 123° Southeast 463 533 37,000  Level Miami Center
Wed 10:32:15 PM 24.0767 -75.3522 123° Southeast 463 533 37,000  Level Miami Center
Wed 10:33:15 PM 24.0169 -75.2483 122° Southeast 463 533 37,000  Level Miami Center
Wed 10:34:15 PM 23.9467 -75.1264 122° Southeast 463 533 37,000  Level Miami Center
Wed 10:35:16 PM 23.8783 -75.0069 122° Southeast 463 533 37,000  Level Miami Center
Wed 10:36:17 PM 23.8081 -74.8919 124° Southeast 463 533 37,000  Level Miami Center
Wed 10:37:16 PM 23.7375 -74.7728 123° Southeast 463 533 37,000  Level Miami Center
Wed 10:38:14 PM 23.6708 -74.6561 122° Southeast 463 533 37,000  Level Miami Center
Wed 10:39:15 PM 23.6003 -74.5372 123° Southeast 463 533 37,000  Level Miami Center
Wed 10:40:15 PM 23.5294 -74.4206 123° Southeast 463 533 37,000  Level Miami Center
Wed 10:41:17 PM 23.4606 -74.3019 122° Southeast 463 533 37,000  Level Miami Center
Wed 10:42:15 PM 23.3897 -74.1900 125° Southeast 463 533 37,000  Level Miami Center
Wed 10:43:17 PM 23.3208 -74.0739 123° Southeast 463 533 37,000  Level Miami Center
Wed 10:44:15 PM 23.2536 -73.9556 122° Southeast 463 533 37,000  Level Miami Center
Wed 10:45:17 PM 23.1825 -73.8397 124° Southeast 463 533 37,000  Level Miami Center
Wed 10:46:14 PM 23.1111 -73.7239 124° Southeast 458 527 37,000 51 Level Miami Center
Wed 10:47:14 PM 23.0439 -73.6083 122° Southeast 458 527 37,100 496 Climbing Miami Center
Wed 10:48:15 PM 22.9767 -73.4925 122° Southeast 458 527 38,000 744 Climbing Miami Center
Wed 10:49:15 PM 22.9072 -73.3772 123° Southeast 458 527 38,600 504 Climbing Miami Center
Wed 10:50:14 PM 22.8397 -73.2619 122° Southeast 458 527 39,000 198 Climbing Miami Center
Wed 10:51:16 PM 22.7700 -73.1467 123° Southeast 453 521 39,000  Level Miami Center
Wed 10:52:14 PM 22.7044 -73.0225 120° Southeast 447 514 39,000  Level Miami Center
Wed 10:53:14 PM 22.6344 -72.9053 123° Southeast 447 514 39,000  Level Miami Center
Wed 10:54:16 PM 22.5689 -72.7883 121° Southeast 453 521 39,000  Level Miami Center
Wed 10:55:16 PM 22.4967 -72.6736 124° Southeast 453 521 39,000  Level Miami Center
Wed 10:56:17 PM 22.4267 -72.5569 123° Southeast 453 521 39,000  Level Miami Center
Wed 10:57:14 PM 22.3564 -72.4403 123° Southeast 453 521 39,000  Level Miami Center
Wed 10:58:16 PM 22.2883 -72.3236 122° Southeast 453 521 39,000  Level Miami Center
Wed 10:59:14 PM 22.2181 -72.2072 123° Southeast 453 521 39,000  Level Miami Center
Wed 11:00:15 PM 22.1497 -72.0908 122° Southeast 453 521 39,000  Level Miami Center
Wed 11:01:14 PM 22.0814 -71.9769 123° Southeast 453 521 39,000  Level Miami Center
Wed 11:02:16 PM 22.0131 -71.8608 122° Southeast 453 521 39,000  Level Miami Center
Wed 11:03:16 PM 21.9422 -71.7450 123° Southeast 453 521 39,000  Level Miami Center
Wed 11:04:14 PM 21.8717 -71.6292 123° Southeast 453 521 39,000  Level Miami Center
Wed 11:05:15 PM 21.8031 -71.5136 123° Southeast 453 521 39,000  Level Miami Center
Wed 11:06:17 PM 21.7342 -71.4003 123° Southeast 453 521 39,000  Level Miami Center
Wed 11:07:15 PM 21.6678 -71.2892 123° Southeast 448 516 39,000  Level Miami Center
Wed 11:08:14 PM 21.6161 -71.1953 121° Southeast 448 516 39,000  Level Miami Center
Wed 11:09:16 PM 21.5364 -71.0694 124° Southeast 454 522 39,000  Level Miami Center
Wed 11:10:15 PM 21.4653 -70.9522 123° Southeast 468 539 39,000  Level Miami Center
Wed 11:11:14 PM 21.3942 -70.8417 125° Southeast 463 533 39,000  Level Miami Center
Wed 11:12:14 PM 21.3250 -70.7292 123° Southeast 458 527 39,000  Level Miami Center
Wed 11:13:14 PM 21.2539 -70.6189 125° Southeast 453 521 39,000  Level Miami Center
Wed 11:14:14 PM 21.1869 -70.5086 123° Southeast 453 521 39,000  Level Miami Center
Wed 11:15:15 PM 21.1175 -70.3942 123° Southeast 453 521 39,000  Level Miami Center
Wed 11:16:15 PM 21.0464 -70.2867 125° Southeast 448 516 39,000  Level Miami Center
Wed 11:17:14 PM 20.9769 -70.1747 124° Southeast 448 516 39,000  Level Miami Center
Wed 11:18:14 PM 20.9094 -70.0647 123° Southeast 448 516 39,000  Level Miami Center
Wed 11:19:16 PM 20.8400 -69.9553 124° Southeast 448 516 39,000  Level Miami Center
Wed 11:20:17 PM 20.7706 -69.8436 124° Southeast 453 521 39,000  Level Miami Center
Wed 11:21:14 PM 20.7008 -69.7342 124° Southeast 453 521 39,000  Level Miami Center
Wed 11:22:14 PM 20.6311 -69.6228 124° Southeast 448 516 39,000  Level Miami Center
Wed 11:23:16 PM 20.5614 -69.5114 124° Southeast 448 516 39,000  Level Miami Center
Wed 11:24:14 PM 20.4917 -69.4025 124° Southeast 448 516 39,000  Level Miami Center
Wed 11:25:15 PM 20.4150 -69.2853 125° Southeast 448 516 39,000  Level Miami Center
Wed 11:26:15 PM 20.3431 -69.1742 125° Southeast 448 516 39,000  Level Miami Center
Wed 11:27:15 PM 20.2772 -69.0633 122° Southeast 448 516 39,000  Level Miami Center
Wed 11:28:16 PM 20.2050 -68.9528 125° Southeast 448 516 39,000  Level Miami Center
Wed 11:29:15 PM 20.1350 -68.8442 124° Southeast 448 516 39,000  Level Miami Center
Wed 11:30:17 PM 20.0689 -68.7358 123° Southeast 448 516 39,000  Level Miami Center
Wed 11:31:15 PM 20.0008 -68.6297 124° Southeast 448 516 39,000  Level Miami Center
Wed 11:32:15 PM 19.9286 -68.5194 125° Southeast 448 516 39,000  Level Miami Center
Wed 11:33:16 PM 19.8581 -68.4094 124° Southeast 448 516 39,000  Level Miami Center
Wed 11:34:17 PM 19.8000 -68.3000 119° Southeast 440 506 39,000  Level San Juan Center
Wed 11:35:17 PM 19.7333 -68.1833 121° Southeast 450 518 39,000  Level San Juan Center
Wed 11:36:17 PM 19.6667 -68.0833 125° Southeast 440 506 39,000  Level San Juan Center
Wed 11:37:17 PM 19.5833 -67.9667 127° Southeast 450 518 39,000  Level San Juan Center
Wed 11:38:17 PM 19.5167 -67.8667 125° Southeast 450 518 39,000 -1,190 Level San Juan Center
Wed 11:39:18 PM 19.4500 -67.7500 121° Southeast 440 506 36,600 -2,132 Descending San Juan Center
Wed 11:40:18 PM 19.3833 -67.6333 121° Southeast 440 506 34,700 -2,250 Descending San Juan Center
Wed 11:41:18 PM 19.3167 -67.5333 125° Southeast 450 518 32,100 -2,400 Descending San Juan Center
Wed 11:42:18 PM 19.2333 -67.4333 131° Southeast 460 529 29,900 -2,350 Descending San Juan Center
Wed 11:43:18 PM 19.1667 -67.3167 121° Southeast 480 552 27,400 -2,300 Descending San Juan Center
Wed 11:44:18 PM 19.0833 -67.2000 127° Southeast 460 529 25,300 -2,331 Descending San Juan Center
Wed 11:45:19 PM 19.0000 -67.1000 131° Southeast 430 495 22,700 -2,350 Descending San Juan Center
Wed 11:46:18 PM 18.9167 -66.9833 127° Southeast 430 495 20,600 -2,118 Descending San Juan Center
Wed 11:47:18 PM 18.8333 -66.9000 137° Southeast 410 472 18,500 -2,033 Descending San Juan Center
Wed 11:48:19 PM 18.7833 -66.8167 122° Southeast 400 460 16,500 -1,983 Descending San Juan Center
Wed 11:49:19 PM 18.7000 -66.7333 137° Southeast 370 426 14,500 -1,900 Descending San Juan Center
Wed 11:50:19 PM 18.6333 -66.6500 130° Southeast 360 414 12,700 -1,650 Descending San Juan Center
Wed 11:51:19 PM 18.5833 -66.5667 122° Southeast 320 368 11,200 -1,300 Descending San Juan Center
Wed 11:52:19 PM 18.5167 -66.5167 145° Southeast 280 322 10,100 -1,400 Descending San Juan Center
Wed 11:53:19 PM 18.4833 -66.4500 118° Southeast 270 311 8,400 -1,884 Descending San Juan Center
Wed 11:54:20 PM 18.4333 -66.3833 128° Southeast 260 299 6,300 -2,033 Descending San Juan Center
Wed 11:55:20 PM 18.4333 -66.3167 90° East 250 288 4,300 -1,650 Descending San Juan Center
Wed 11:56:20 PM 18.4333 -66.2333 90° East 240 276 3,000 -650 Descending San Juan Center
Wed 11:57:20 PM 18.4333 -66.1833 90° East 200 230 3,000 -400 Level San Juan Center
Wed 11:58:20 PM 18.4333 -66.1333 90° East 180 207 2,200 -800 Descending San Juan Center
Wed 11:59:20 PM 18.4333 -66.0833 90° East 160 184 1,400 -700 Descending San Juan Center
Thu 12:00:20 AM 18.4333 -66.0500 90° East 110 127 800 -595 Descending San Juan Center
Thu 12:01:21 AM 18.4333 -66.0167 90° East 130 150 200 -590 Descending San Juan Center

Login

Don't have an account? Register now (free) for customized features, flight alerts, and more!